Cottage Lake, Washington
Current Conditions -  °F | °C
As of 7:25 AM on Friday 31 Oct 2014 (Local Time) from KPAE Reporting Station
Light Rain Light Rain  
Wind Chill: 50°   Ceiling: 200
Heat Index: 50°   Visibility: 1mi
Dew Point: 49°   Wind: 7mph
Humidity: 96%   Direction: 300°WNW
Pressure: 29.69"   Gusts: NA
Location:  47.7637°N, 122.118°W
Report Text: KPAE 311425Z 30006KT 1SM R16R/1600V2000FT -RA BR VV002 10/09 A2969 RMK AO2 P0001 T01000094
Loading
Personal Weather Stations






























Interactive Weather Map
Tropical Storm Tracking
New forecast layout! Learn more

10-Day Weather Forecast

Advertisements
Track Severe Weather on mobile